Time;durP1;ratioP1;P1;durP2;ratioP2;P2;SDS_P1;SDS_P2;PMS_P1;PMS_P2;Temp;Humidity;BMP_temperature;BMP_pressure;BME280_temperature;BME280_humidity;BME280_pressure;Samples;Min_cycle;Max_cycle;Signal;HPM_P1;HPM_P2
2021/03/17 00:01:04;;;;;;;14.63;8.27;;;77.70;2227.20;;;;;;4983152;28;20039;-74
2021/03/17 00:03:29;;;;;;;14.05;9.68;;;77.70;2227.20;;;;;;4975148;28;20059;-72
2021/03/17 00:05:57;;;;;;;14.57;9.10;;;77.70;2227.20;;;;;;4973512;28;20082;-74
2021/03/17 00:08:22;;;;;;;12.95;8.55;;;77.70;2227.20;;;;;;4974050;28;20387;-74
2021/03/17 00:10:51;;;;;;;9.48;7.40;;;77.70;2227.20;;;;;;4975542;28;20098;-73
2021/03/17 00:13:28;;;;;;;11.45;7.35;;;102.40;2227.20;;;;;;4963070;28;20028;-74
2021/03/17 00:15:59;;;;;;;10.63;7.50;;;77.70;2227.20;;;;;;4968768;28;20037;-74
2021/03/17 00:18:25;;;;;;;13.57;7.80;;;102.40;2227.20;;;;;;4975091;28;20074;-74
2021/03/17 00:20:51;;;;;;;11.90;7.90;;;77.70;2227.20;;;;;;4971401;28;20488;-73
2021/03/17 00:23:18;;;;;;;10.45;7.50;;;102.40;2227.20;;;;;;4968401;28;20077;-74
2021/03/17 00:25:44;;;;;;;16.17;7.45;;;77.70;2227.20;;;;;;4973307;28;20404;-74
2021/03/17 00:28:10;;;;;;;11.30;7.38;;;102.40;2227.20;;;;;;4969865;28;20023;-74
2021/03/17 00:30:38;;;;;;;13.70;8.75;;;102.40;2227.20;;;;;;4964310;28;20027;-74
2021/03/17 00:33:08;;;;;;;9.63;7.55;;;102.40;2227.20;;;;;;4970113;28;20033;-74
2021/03/17 00:35:34;;;;;;;10.35;7.70;;;102.40;2227.20;;;;;;4974436;28;20030;-74
2021/03/17 00:38:00;;;;;;;11.10;7.50;;;102.40;2227.20;;;;;;4974921;28;20400;-72
2021/03/17 00:40:26;;;;;;;10.40;6.75;;;102.40;2227.20;;;;;;4981353;28;20030;-75
2021/03/17 00:42:52;;;;;;;9.60;7.15;;;102.40;2227.20;;;;;;4976198;28;20027;-72
2021/03/17 00:45:18;;;;;;;10.02;6.85;;;102.50;2227.20;;;;;;4958051;28;20104;-73
2021/03/17 00:47:44;;;;;;;9.48;6.85;;;102.40;2227.20;;;;;;4972343;28;20484;-73
2021/03/17 00:50:12;;;;;;;8.52;6.10;;;102.50;2227.20;;;;;;4968495;28;20400;-74
2021/03/17 00:52:38;;;;;;;8.88;6.32;;;102.40;2227.20;;;;;;4957750;28;20030;-73
2021/03/17 00:55:05;;;;;;;8.70;6.28;;;102.50;2227.20;;;;;;4968841;28;20034;-73
2021/03/17 00:57:30;;;;;;;9.07;6.47;;;102.50;2227.20;;;;;;4975209;28;20029;-72
2021/03/17 00:59:56;;;;;;;8.77;6.53;;;102.40;2227.20;;;;;;4967123;28;20368;-74
2021/03/17 01:02:22;;;;;;;10.73;6.85;;;102.40;2227.20;;;;;;4961004;28;20094;-74
2021/03/17 01:04:48;;;;;;;9.10;5.90;;;102.40;2227.20;;;;;;4969908;28;20043;-74
2021/03/17 01:07:18;;;;;;;10.05;6.18;;;102.40;2227.20;;;;;;4974171;28;20126;-73
2021/03/17 01:09:44;;;;;;;8.68;5.90;;;102.40;2227.20;;;;;;4986100;28;20480;-72
2021/03/17 01:12:10;;;;;;;11.27;6.32;;;102.40;2227.20;;;;;;4976448;28;20113;-73
2021/03/17 01:14:37;;;;;;;7.47;5.80;;;102.40;2227.20;;;;;;4974358;28;20033;-74
2021/03/17 01:17:04;;;;;;;8.88;6.13;;;102.40;2227.20;;;;;;4977052;28;20031;-74
2021/03/17 01:19:31;;;;;;;9.90;5.82;;;102.40;2227.20;;;;;;4969750;28;20031;-72
2021/03/17 01:21:57;;;;;;;6.68;5.53;;;102.40;2227.20;;;;;;4972708;28;20591;-74
2021/03/17 01:24:23;;;;;;;6.68;5.65;;;77.70;2227.20;;;;;;4973086;28;20022;-74
2021/03/17 01:26:49;;;;;;;6.63;5.63;;;77.70;2227.20;;;;;;4979259;28;20039;-74
2021/03/17 01:29:15;;;;;;;8.35;5.80;;;77.70;2227.20;;;;;;4972839;28;20488;-73
2021/03/17 01:31:41;;;;;;;9.48;5.75;;;77.70;2227.20;;;;;;4974328;28;20106;-74
2021/03/17 01:34:07;;;;;;;7.40;5.93;;;77.70;2227.20;;;;;;4986947;28;20488;-74
2021/03/17 01:36:32;;;;;;;6.85;5.57;;;102.40;2227.20;;;;;;4974182;28;20033;-75
2021/03/17 01:38:58;;;;;;;8.57;6.30;;;77.70;2227.20;;;;;;4973155;28;20038;-73
2021/03/17 01:41:24;;;;;;;9.10;5.68;;;77.70;2227.20;;;;;;4990705;28;20026;-74
2021/03/17 01:43:50;;;;;;;7.82;5.57;;;77.70;2227.20;;;;;;4978166;28;20026;-74
2021/03/17 01:46:15;;;;;;;8.23;5.63;;;77.70;2227.20;;;;;;4973567;28;20093;-73
2021/03/17 01:48:41;;;;;;;7.28;5.60;;;102.40;2227.20;;;;;;4973520;28;20085;-73
2021/03/17 01:51:09;;;;;;;6.82;5.75;;;77.70;2227.20;;;;;;4973686;28;20113;-73
2021/03/17 01:53:37;;;;;;;6.97;5.47;;;77.70;2227.20;;;;;;4973761;28;20026;-73
2021/03/17 01:56:04;;;;;;;8.85;5.13;;;77.70;2227.20;;;;;;4972023;28;20031;-73
2021/03/17 01:58:31;;;;;;;6.78;4.68;;;102.40;2227.20;;;;;;4971606;28;20029;-73
2021/03/17 02:00:57;;;;;;;7.50;5.28;;;77.70;2227.20;;;;;;4971221;28;20055;-74
2021/03/17 02:03:24;;;;;;;7.40;5.38;;;77.70;2227.20;;;;;;4973566;28;20138;-71
2021/03/17 02:05:51;;;;;;;8.40;5.25;;;77.70;2227.20;;;;;;4973205;28;20086;-73
2021/03/17 02:08:35;;;;;;;6.85;5.03;;;77.70;2227.20;;;;;;4972857;28;20457;-72
2021/03/17 02:11:02;;;;;;;8.00;5.40;;;77.70;2227.20;;;;;;4962245;28;20050;-72
2021/03/17 02:13:40;;;;;;;6.72;5.15;;;77.70;2227.20;;;;;;4972277;28;20097;-74
2021/03/17 02:16:23;;;;;;;7.07;5.07;;;77.70;2227.20;;;;;;4970701;28;20026;-74
2021/03/17 02:19:24;;;;;;;8.15;5.15;;;77.60;2227.20;;;;;;4973355;28;20030;-74
2021/03/17 02:22:04;;;;;;;8.35;5.00;;;77.60;2227.20;;;;;;4952130;28;20047;-72
2021/03/17 02:24:49;;;;;;;6.05;5.13;;;77.60;2227.20;;;;;;4955899;28;20098;-73
2021/03/17 02:27:52;;;;;;;6.85;5.43;;;77.60;2227.20;;;;;;4965467;28;20034;-74
2021/03/17 02:30:46;;;;;;;6.75;4.97;;;77.60;2227.20;;;;;;4973065;28;20070;-73
2021/03/17 02:33:36;;;;;;;9.53;6.10;;;77.60;2227.20;;;;;;4973538;28;20424;-74
2021/03/17 02:36:09;;;;;;;7.03;5.43;;;77.60;2227.20;;;;;;4967774;28;20026;-73
2021/03/17 02:38:38;;;;;;;6.88;4.80;;;77.50;2227.20;;;;;;4963995;28;20027;-74
2021/03/17 02:41:05;;;;;;;8.13;5.55;;;77.60;2227.20;;;;;;4964768;28;20495;-72
2021/03/17 02:43:35;;;;;;;8.23;5.80;;;77.50;2227.20;;;;;;4973177;28;20499;-73
2021/03/17 02:46:05;;;;;;;8.05;5.65;;;77.50;2227.20;;;;;;4971726;28;20034;-74
2021/03/17 02:48:35;;;;;;;8.93;5.45;;;77.50;2227.20;;;;;;4972473;28;20018;-74
2021/03/17 02:51:16;;;;;;;8.50;5.80;;;77.50;2227.20;;;;;;4976825;28;20030;-73
2021/03/17 02:53:45;;;;;;;10.10;5.80;;;77.50;2227.20;;;;;;4958515;28;20020;-72
2021/03/17 02:56:13;;;;;;;7.97;5.80;;;77.50;2227.20;;;;;;4969076;28;20035;-73
2021/03/17 02:58:43;;;;;;;8.63;5.55;;;77.50;2227.20;;;;;;4976765;28;20490;-73
2021/03/17 03:01:13;;;;;;;9.43;5.82;;;77.40;2227.20;;;;;;4976470;28;20030;-73
2021/03/17 03:03:39;;;;;;;7.10;5.22;;;77.40;2227.20;;;;;;4974263;28;20043;-73
2021/03/17 03:06:07;;;;;;;8.38;5.65;;;77.40;2227.20;;;;;;4976020;28;20034;-71
2021/03/17 03:08:36;;;;;;;8.45;6.10;;;77.40;2227.20;;;;;;4975828;28;20550;-74
2021/03/17 03:11:04;;;;;;;7.60;5.45;;;77.40;2227.20;;;;;;4979942;28;20035;-73
2021/03/17 03:13:31;;;;;;;9.68;5.85;;;77.40;2227.20;;;;;;4958760;28;20501;-74
2021/03/17 03:15:57;;;;;;;6.70;5.47;;;77.40;2227.20;;;;;;4977001;28;20029;-73
2021/03/17 03:18:26;;;;;;;7.93;5.72;;;77.40;2227.20;;;;;;4976640;28;20027;-74
2021/03/17 03:20:54;;;;;;;8.75;5.95;;;77.40;2227.20;;;;;;4969009;28;20361;-71
2021/03/17 03:23:21;;;;;;;6.68;5.70;;;77.40;2227.20;;;;;;4967394;28;20031;-74
2021/03/17 03:25:49;;;;;;;10.43;6.10;;;77.30;2227.20;;;;;;4981075;28;20022;-73
2021/03/17 03:28:17;;;;;;;10.10;6.15;;;77.30;2227.20;;;;;;4984322;28;20027;-73
2021/03/17 03:30:47;;;;;;;9.73;5.97;;;77.30;2227.20;;;;;;4981315;28;20045;-73
2021/03/17 03:33:13;;;;;;;8.45;5.90;;;77.30;2227.20;;;;;;4973912;28;20042;-72
2021/03/17 03:35:40;;;;;;;8.88;6.30;;;77.30;2227.20;;;;;;4951563;28;20043;-74
2021/03/17 03:38:10;;;;;;;9.18;5.90;;;77.30;2227.20;;;;;;4976327;28;20029;-73
2021/03/17 03:40:37;;;;;;;8.32;6.10;;;77.30;2227.20;;;;;;4975893;28;20384;-74
2021/03/17 03:43:04;;;;;;;9.45;5.70;;;77.30;2227.20;;;;;;4976326;28;20018;-72
2021/03/17 03:45:30;;;;;;;8.30;6.22;;;77.20;2227.20;;;;;;4974264;28;20054;-74
2021/03/17 03:47:56;;;;;;;9.70;6.25;;;77.30;2227.20;;;;;;4966257;28;20045;-72
2021/03/17 03:50:23;;;;;;;9.43;5.85;;;77.20;2227.20;;;;;;4974956;28;20391;-72
2021/03/17 03:52:58;;;;;;;7.60;5.95;;;77.20;2227.20;;;;;;4976080;28;20031;-72
2021/03/17 03:55:33;;;;;;;12.80;7.65;;;77.20;2227.20;;;;;;4977032;28;20057;-72
2021/03/17 03:58:02;;;;;;;14.65;8.20;;;77.20;2227.20;;;;;;4975211;28;20023;-74
2021/03/17 04:00:32;;;;;;;12.82;7.53;;;77.20;2227.20;;;;;;4964884;28;20027;-73
2021/03/17 04:03:00;;;;;;;13.68;8.30;;;77.10;2227.20;;;;;;4975923;28;20090;-74
2021/03/17 04:05:36;;;;;;;11.23;7.90;;;77.10;2227.20;;;;;;4973120;28;20037;-73
2021/03/17 04:08:07;;;;;;;12.52;7.30;;;77.00;2227.20;;;;;;4976851;28;20432;-72
2021/03/17 04:10:36;;;;;;;11.38;7.60;;;77.00;2227.20;;;;;;4977044;28;20027;-73
2021/03/17 04:13:05;;;;;;;10.63;7.40;;;77.00;2227.20;;;;;;4976352;28;20034;-73
2021/03/17 04:15:36;;;;;;;10.82;7.80;;;77.00;2227.20;;;;;;4976359;28;20042;-73
2021/03/17 04:18:07;;;;;;;12.88;7.90;;;77.00;2227.20;;;;;;4975714;28;20027;-72
2021/03/17 04:20:42;;;;;;;12.63;8.60;;;77.00;2227.20;;;;;;4976523;28;20042;-73
2021/03/17 04:23:10;;;;;;;12.80;8.73;;;77.00;2227.20;;;;;;4975296;28;20023;-74
2021/03/17 04:25:37;;;;;;;11.02;7.13;;;77.00;2227.20;;;;;;4975209;28;20111;-72
2021/03/17 04:28:05;;;;;;;9.70;7.63;;;77.00;2227.20;;;;;;4983163;28;20030;-74
2021/03/17 04:30:32;;;;;;;10.60;7.55;;;77.00;2227.20;;;;;;4972571;28;20096;-74
2021/03/17 04:32:59;;;;;;;12.30;7.63;;;77.00;2227.20;;;;;;4964866;28;20473;-74
2021/03/17 04:35:26;;;;;;;12.40;8.00;;;77.10;2227.20;;;;;;4972540;28;20488;-74
2021/03/17 04:37:54;;;;;;;10.90;7.85;;;77.00;2227.20;;;;;;4974061;28;20034;-72
2021/03/17 04:40:20;;;;;;;10.10;7.93;;;77.00;2227.20;;;;;;4973022;28;20071;-72
2021/03/17 04:42:47;;;;;;;11.05;7.75;;;77.00;2227.20;;;;;;4976320;28;20038;-72
2021/03/17 04:45:14;;;;;;;10.27;8.05;;;77.00;2227.20;;;;;;4974804;28;20030;-75
2021/03/17 04:47:42;;;;;;;11.07;7.80;;;77.00;2227.20;;;;;;4972559;28;20184;-75
2021/03/17 04:50:10;;;;;;;11.80;8.02;;;77.00;2227.20;;;;;;4975056;28;20162;-77
2021/03/17 04:52:39;;;;;;;10.38;7.80;;;77.00;2227.20;;;;;;4974776;28;20090;-75
2021/03/17 04:55:05;;;;;;;12.77;8.20;;;77.00;2227.20;;;;;;4977341;28;20105;-70
2021/03/17 04:57:34;;;;;;;13.55;8.77;;;77.00;2227.20;;;;;;4969528;28;20066;-68
2021/03/17 05:00:03;;;;;;;11.20;8.25;;;77.00;2227.20;;;;;;4963317;28;20123;-69
2021/03/17 05:02:30;;;;;;;12.05;8.57;;;77.00;2227.20;;;;;;4973851;28;20109;-68
2021/03/17 05:04:58;;;;;;;24.63;13.55;;;77.00;2227.20;;;;;;4973478;28;20386;-75
2021/03/17 05:07:25;;;;;;;20.48;12.55;;;77.00;2227.20;;;;;;4973782;28;20034;-68
2021/03/17 05:09:51;;;;;;;18.63;11.75;;;77.00;2227.20;;;;;;4973216;28;20697;-75
2021/03/17 05:12:18;;;;;;;18.92;12.38;;;77.00;2227.20;;;;;;4974199;28;20492;-73
2021/03/17 05:14:45;;;;;;;15.13;9.25;;;77.00;2227.20;;;;;;4972670;28;20030;-70
2021/03/17 05:17:13;;;;;;;15.25;10.18;;;77.00;2227.20;;;;;;4972189;28;20046;-70
2021/03/17 05:19:41;;;;;;;13.02;9.77;;;77.00;2227.20;;;;;;4971491;28;20019;-68
2021/03/17 05:22:08;;;;;;;12.07;9.40;;;77.00;2227.20;;;;;;4974440;28;20031;-71
2021/03/17 05:24:35;;;;;;;11.75;8.68;;;77.00;2227.20;;;;;;4973980;28;20038;-73
2021/03/17 05:27:05;;;;;;;13.23;8.55;;;77.00;2227.20;;;;;;4980828;28;20121;-71
2021/03/17 05:29:32;;;;;;;11.20;8.63;;;77.00;2227.20;;;;;;4969319;28;20054;-71
2021/03/17 05:31:59;;;;;;;11.05;8.90;;;77.10;2227.20;;;;;;4972352;28;20034;-71
2021/03/17 05:34:25;;;;;;;11.63;8.95;;;77.00;2227.20;;;;;;4973674;28;20110;-70
2021/03/17 05:36:50;;;;;;;13.90;9.18;;;77.00;2227.20;;;;;;4972669;28;20109;-72
2021/03/17 05:39:16;;;;;;;11.27;8.60;;;77.00;2227.20;;;;;;4972902;28;20431;-72
2021/03/17 05:41:42;;;;;;;12.30;9.10;;;77.10;2227.20;;;;;;4972518;28;20077;-71
2021/03/17 05:44:09;;;;;;;11.73;9.13;;;77.10;2227.20;;;;;;4973009;28;20031;-69
2021/03/17 05:46:36;;;;;;;13.10;8.63;;;77.10;2227.20;;;;;;4972149;28;20038;-70
2021/03/17 05:49:03;;;;;;;12.95;9.18;;;77.10;2227.20;;;;;;4973524;28;20485;-71
2021/03/17 05:51:29;;;;;;;13.32;9.55;;;77.30;2227.20;;;;;;4977645;28;20148;-70
2021/03/17 05:53:55;;;;;;;12.45;9.20;;;77.10;2227.20;;;;;;4974039;28;20043;-73
2021/03/17 05:56:21;;;;;;;15.02;9.85;;;77.10;2227.20;;;;;;4973092;28;20034;-73
2021/03/17 05:58:47;;;;;;;12.75;9.48;;;77.10;2227.20;;;;;;4971870;28;20023;-71
2021/03/17 06:01:17;;;;;;;16.05;9.68;;;77.20;2227.20;;;;;;4973317;28;20035;-72
2021/03/17 06:03:43;;;;;;;16.00;9.65;;;77.20;2227.20;;;;;;4972818;28;20043;-72
2021/03/17 06:06:11;;;;;;;14.82;10.07;;;77.30;2227.20;;;;;;4968375;28;20038;-72
2021/03/17 06:08:47;;;;;;;13.75;9.35;;;77.30;2227.20;;;;;;4959600;28;20187;-70
2021/03/17 06:11:15;;;;;;;12.77;9.27;;;77.30;2227.20;;;;;;4960338;28;20388;-71
2021/03/17 06:13:47;;;;;;;14.25;9.77;;;77.30;2227.20;;;;;;4973020;28;20476;-72
2021/03/17 06:16:15;;;;;;;14.40;10.13;;;77.30;2227.20;;;;;;4976427;28;20030;-71
2021/03/17 06:18:44;;;;;;;13.77;10.05;;;77.40;2227.20;;;;;;4973632;28;20488;-71
2021/03/17 06:21:17;;;;;;;14.10;10.52;;;77.50;2227.20;;;;;;4972326;28;20038;-71
2021/03/17 06:23:44;;;;;;;12.65;9.88;;;77.50;2227.20;;;;;;4973157;28;20023;-71
2021/03/17 06:26:10;;;;;;;13.38;9.70;;;77.50;2227.20;;;;;;4972933;28;20034;-73
2021/03/17 06:28:36;;;;;;;14.00;10.07;;;77.60;2227.20;;;;;;4978752;28;20431;-72
2021/03/17 06:31:03;;;;;;;12.82;10.25;;;77.50;2227.20;;;;;;4977513;28;20030;-71
2021/03/17 06:33:29;;;;;;;18.35;11.65;;;77.60;2227.20;;;;;;4972061;28;20037;-72
2021/03/17 06:36:18;;;;;;;14.65;10.70;;;77.60;2227.20;;;;;;4973371;28;20023;-72
2021/03/17 06:38:46;;;;;;;15.75;10.82;;;77.60;2227.20;;;;;;4969979;28;20034;-71
2021/03/17 06:41:12;;;;;;;14.38;10.95;;;77.60;2227.20;;;;;;4972656;28;20031;-71
2021/03/17 06:43:41;;;;;;;19.48;13.50;;;77.60;2227.20;;;;;;4971551;28;20031;-71
2021/03/17 06:46:10;;;;;;;15.93;12.32;;;77.60;2227.20;;;;;;4973176;28;20057;-70
2021/03/17 06:48:39;;;;;;;15.68;10.98;;;77.60;2227.20;;;;;;4969327;28;20183;-72
2021/03/17 06:51:09;;;;;;;16.10;11.80;;;77.60;2227.20;;;;;;4971021;28;20038;-74
2021/03/17 06:53:42;;;;;;;19.52;12.65;;;77.60;2227.20;;;;;;4973014;28;20480;-72
2021/03/17 06:56:23;;;;;;;28.77;15.77;;;77.70;2227.20;;;;;;4973766;28;20495;-75
2021/03/17 06:58:56;;;;;;;22.83;15.13;;;77.70;2227.20;;;;;;4970678;28;20038;-72
2021/03/17 07:01:36;;;;;;;19.30;13.20;;;77.70;2227.20;;;;;;4972243;28;20030;-71
2021/03/17 07:04:18;;;;;;;16.45;11.88;;;77.70;2227.20;;;;;;4970603;28;20591;-68
2021/03/17 07:06:46;;;;;;;15.45;11.57;;;102.40;2227.20;;;;;;4969926;28;20050;-69
2021/03/17 07:09:32;;;;;;;19.25;11.75;;;102.50;2227.20;;;;;;4972726;28;20097;-71
2021/03/17 07:12:10;;;;;;;17.48;12.68;;;102.50;2227.20;;;;;;4971975;28;20050;-68
2021/03/17 07:14:43;;;;;;;17.25;12.23;;;102.70;2227.20;;;;;;4970841;28;20500;-70
2021/03/17 07:17:25;;;;;;;18.45;11.70;;;102.90;2227.20;;;;;;4971953;28;20035;-70
2021/03/17 07:19:51;;;;;;;15.43;10.82;;;103.10;2227.20;;;;;;4971277;28;20027;-69
2021/03/17 07:22:17;;;;;;;15.75;11.63;;;103.30;2227.20;;;;;;4974223;28;20023;-69
2021/03/17 07:24:45;;;;;;;16.42;12.27;;;128.00;2252.80;;;;;;4977915;28;20121;-67
2021/03/17 07:27:31;;;;;;;15.98;12.70;;;128.00;2252.80;;;;;;4972428;28;20039;-69
2021/03/17 07:29:59;;;;;;;19.13;13.85;;;103.30;2227.20;;;;;;4973775;28;20023;-68
2021/03/17 07:32:53;;;;;;;16.05;12.93;;;103.20;2227.20;;;;;;4973369;28;20031;-67
2021/03/17 07:35:30;;;;;;;21.83;13.90;;;103.20;2227.20;;;;;;4973764;28;20090;-66
2021/03/17 07:38:06;;;;;;;35.75;25.80;;;103.20;2227.20;;;;;;4975580;28;20030;-68
2021/03/17 07:40:35;;;;;;;18.45;14.32;;;128.00;2252.80;;;;;;4974661;28;20077;-69
2021/03/17 07:43:01;;;;;;;26.38;20.10;;;103.30;2227.20;;;;;;4975804;28;20034;-68
2021/03/17 07:45:28;;;;;;;29.35;23.83;;;128.00;2252.80;;;;;;4975416;28;20027;-69
2021/03/17 07:47:55;;;;;;;18.17;13.40;;;128.10;2252.80;;;;;;4974568;28;20121;-68
2021/03/17 07:50:22;;;;;;;23.10;14.10;;;128.30;2252.80;;;;;;4975184;28;20026;-68
2021/03/17 07:52:52;;;;;;;22.95;15.25;;;128.30;2252.80;;;;;;4976092;28;20063;-69
2021/03/17 07:55:19;;;;;;;24.30;15.48;;;128.40;2252.80;;;;;;4974222;28;20026;-73
2021/03/17 07:57:45;;;;;;;24.50;16.33;;;128.60;2252.80;;;;;;4975870;28;20035;-68
2021/03/17 08:00:12;;;;;;;21.73;15.57;;;128.80;2252.80;;;;;;4976162;28;20030;-69
2021/03/17 08:02:39;;;;;;;19.80;14.75;;;128.80;2252.80;;;;;;4974836;28;20035;-69
2021/03/17 08:05:07;;;;;;;20.38;15.43;;;128.90;2252.80;;;;;;4974233;28;20051;-69
2021/03/17 08:07:35;;;;;;;18.48;13.63;;;128.90;2252.80;;;;;;4974008;28;20061;-68
2021/03/17 08:10:02;;;;;;;21.50;12.68;;;153.70;2252.80;;;;;;4974352;28;20027;-66
2021/03/17 08:12:27;;;;;;;15.82;11.48;;;153.90;2252.80;;;;;;4971216;28;20745;-68
2021/03/17 08:14:54;;;;;;;15.57;12.27;;;153.90;2252.80;;;;;;4975427;28;20033;-69
2021/03/17 08:17:34;;;;;;;16.05;12.52;;;153.70;2252.80;;;;;;4973938;28;20027;-68
2021/03/17 08:20:29;;;;;;;17.92;12.80;;;153.80;2252.80;;;;;;4971453;28;20030;-68
2021/03/17 08:22:58;;;;;;;17.17;12.25;;;153.70;2252.80;;;;;;4974429;28;20046;-70
2021/03/17 08:25:43;;;;;;;14.77;12.00;;;153.80;2252.80;;;;;;4973700;28;20582;-67
2021/03/17 08:28:20;;;;;;;18.60;12.90;;;153.80;2252.80;;;;;;4974349;28;20106;-67
2021/03/17 08:30:48;;;;;;;17.30;13.30;;;153.70;2252.80;;;;;;4974693;28;20022;-67
2021/03/17 08:33:40;;;;;;;17.02;12.68;;;154.10;2252.80;;;;;;4974360;28;20034;-67
2021/03/17 08:36:10;;;;;;;17.83;13.63;;;154.10;2252.80;;;;;;4972950;28;20031;-68
2021/03/17 08:38:52;;;;;;;15.45;12.18;;;154.10;2252.80;;;;;;4972905;28;20072;-68
2021/03/17 08:41:44;;;;;;;16.27;12.38;;;154.40;2252.80;;;;;;4974461;28;20023;-67
2021/03/17 08:44:16;;;;;;;15.48;12.05;;;179.30;2252.80;;;;;;4980307;28;20034;-67
2021/03/17 08:46:43;;;;;;;16.40;12.15;;;179.80;2252.80;;;;;;4973460;28;20034;-70
2021/03/17 08:49:10;;;;;;;15.05;12.32;;;180.00;2252.80;;;;;;4972496;28;20114;-70
2021/03/17 08:51:45;;;;;;;21.55;14.45;;;180.10;2252.80;;;;;;4973095;28;20524;-69
2021/03/17 08:54:32;;;;;;;16.98;13.45;;;205.00;2252.80;;;;;;4974436;28;20425;-68
2021/03/17 08:57:11;;;;;;;18.63;13.32;;;205.10;2252.80;;;;;;4974154;28;20039;-69
2021/03/17 08:59:43;;;;;;;16.02;12.45;;;205.40;2252.80;;;;;;4982166;28;20034;-68
2021/03/17 09:02:29;;;;;;;19.67;14.48;;;205.40;2227.20;;;;;;4973768;28;20086;-68
2021/03/17 09:04:56;;;;;;;17.95;12.45;;;205.60;2201.60;;;;;;4964189;28;20114;-71
2021/03/17 09:07:26;;;;;;;16.15;13.02;;;205.50;2176.00;;;;;;4971589;28;20035;-76
2021/03/17 09:09:57;;;;;;;16.42;12.88;;;205.60;2227.20;;;;;;4971764;28;20077;-69
2021/03/17 09:12:25;;;;;;;15.85;12.77;;;205.60;2176.00;;;;;;4972890;28;20054;-73
2021/03/17 09:15:11;;;;;;;15.60;12.80;;;205.70;2201.60;;;;;;4975199;28;20034;-74
2021/03/17 09:17:50;;;;;;;16.52;12.63;;;230.40;2201.60;;;;;;4972546;28;20022;-68
2021/03/17 09:20:22;;;;;;;16.65;12.95;;;205.30;2201.60;;;;;;4972233;28;20069;-69
2021/03/17 09:22:58;;;;;;;20.13;13.55;;;205.00;2252.80;;;;;;4973955;28;20019;-75
2021/03/17 09:25:44;;;;;;;16.52;13.43;;;205.00;2252.80;;;;;;4970118;28;20027;-72
2021/03/17 09:28:31;;;;;;;18.88;13.65;;;205.10;2252.80;;;;;;4975326;28;20113;-69
2021/03/17 09:31:06;;;;;;;18.73;14.07;;;205.20;2252.80;;;;;;4969882;28;20030;-72
2021/03/17 09:33:42;;;;;;;21.55;14.68;;;205.30;2252.80;;;;;;4973097;28;20370;-71
2021/03/17 09:36:10;;;;;;;17.10;13.30;;;205.40;2252.80;;;;;;4972098;28;20548;-70
2021/03/17 09:38:42;;;;;;;16.38;12.98;;;205.60;2252.80;;;;;;4987322;28;20106;-73
2021/03/17 09:41:17;;;;;;;20.85;13.70;;;205.60;2227.20;;;;;;4970687;28;20401;-69
2021/03/17 09:43:51;;;;;;;14.57;12.73;;;205.50;2201.60;;;;;;4975223;28;20164;-71
2021/03/17 09:46:25;;;;;;;17.02;13.02;;;205.50;2227.20;;;;;;4975790;28;20388;-68
2021/03/17 09:48:53;;;;;;;18.42;13.05;;;205.70;2201.60;;;;;;4971885;28;20039;-68
2021/03/17 09:51:30;;;;;;;15.00;13.23;;;205.60;2176.00;;;;;;4973074;28;20031;-67
2021/03/17 09:53:58;;;;;;;16.75;13.98;;;230.60;2150.40;;;;;;4973123;28;20049;-70
2021/03/17 09:56:38;;;;;;;18.92;14.18;;;230.70;2124.80;;;;;;4972858;28;20031;-75
2021/03/17 09:59:27;;;;;;;16.90;13.80;;;230.50;2150.40;;;;;;4972508;28;20495;-70
2021/03/17 10:02:14;;;;;;;16.63;13.68;;;230.50;2150.40;;;;;;4972664;28;20102;-77
2021/03/17 10:04:52;;;;;;;19.17;14.98;;;205.70;2176.00;;;;;;4971743;28;20117;-74
2021/03/17 10:07:25;;;;;;;15.55;13.32;;;205.60;2201.60;;;;;;4972015;28;20034;-69
2021/03/17 10:09:52;;;;;;;16.20;13.18;;;230.40;2176.00;;;;;;4974919;28;20038;-70
2021/03/17 10:12:21;;;;;;;15.02;12.88;;;230.60;2176.00;;;;;;4973682;28;20070;-70
2021/03/17 10:14:53;;;;;;;18.48;14.00;;;230.40;2201.60;;;;;;4977461;28;20110;-69
2021/03/17 10:17:20;;;;;;;19.17;15.10;;;230.40;2201.60;;;;;;4972183;28;20511;-71
2021/03/17 10:19:54;;;;;;;15.70;13.70;;;230.40;2201.60;;;;;;4973652;28;20018;-70
2021/03/17 10:22:22;;;;;;;15.85;13.60;;;230.50;2201.60;;;;;;4975248;28;20041;-68
2021/03/17 10:24:51;;;;;;;19.70;14.35;;;230.50;2201.60;;;;;;4963882;28;20030;-71
2021/03/17 10:27:23;;;;;;;22.10;15.63;;;230.40;2176.00;;;;;;4973963;28;20042;-68
2021/03/17 10:29:52;;;;;;;21.60;16.77;;;230.40;2176.00;;;;;;4973139;28;20659;-67
2021/03/17 10:32:22;;;;;;;20.80;16.65;;;205.50;2227.20;;;;;;4972050;28;20086;-67
2021/03/17 10:34:48;;;;;;;19.40;15.95;;;205.30;2252.80;;;;;;4973565;28;20523;-67
2021/03/17 10:37:19;;;;;;;17.75;15.02;;;205.30;2252.80;;;;;;4986530;28;20488;-69
2021/03/17 10:39:46;;;;;;;19.55;14.60;;;205.20;2252.80;;;;;;4970441;28;20022;-67
2021/03/17 10:42:26;;;;;;;60.42;32.55;;;205.20;2252.80;;;;;;4974868;28;20031;-77
2021/03/17 10:45:08;;;;;;;23.75;18.90;;;205.30;2252.80;;;;;;4969914;28;20018;-65
2021/03/17 10:47:34;;;;;;;23.25;17.65;;;205.30;2252.80;;;;;;4972241;28;20075;-73
2021/03/17 10:50:00;;;;;;;21.80;16.60;;;205.30;2252.80;;;;;;4972109;28;20094;-70
2021/03/17 10:52:47;;;;;;;20.85;16.73;;;205.50;2252.80;;;;;;4972565;28;20030;-68
2021/03/17 10:55:18;;;;;;;19.00;15.05;;;205.70;2227.20;;;;;;4971087;28;20031;-75
2021/03/17 10:57:45;;;;;;;22.67;16.88;;;230.50;2227.20;;;;;;4969014;28;20023;-76
2021/03/17 11:00:14;;;;;;;24.25;17.98;;;230.70;2227.20;;;;;;4974601;28;20099;-75
2021/03/17 11:02:40;;;;;;;23.67;18.80;;;230.80;2176.00;;;;;;4972849;28;20027;-77
2021/03/17 11:05:13;;;;;;;21.20;15.70;;;231.20;2176.00;;;;;;4971344;28;20043;-74
2021/03/17 11:07:49;;;;;;;18.20;15.43;;;231.20;2124.80;;;;;;4972044;28;20453;-73
2021/03/17 11:10:41;;;;;;;19.67;16.25;;;231.00;2099.20;;;;;;4975753;28;20037;-72
2021/03/17 11:13:09;;;;;;;21.65;16.05;;;231.00;2099.20;;;;;;4976765;28;20037;-72
2021/03/17 11:15:36;;;;;;;19.00;14.73;;;;;;;;;;4975053;28;20099;-74
2021/03/17 11:18:02;;;;;;;16.17;14.15;;;;;;;;;;4976709;28;20082;-73
2021/03/17 11:20:28;;;;;;;17.67;15.10;;;;;;;;;;4973917;28;20034;-72
2021/03/17 11:22:55;;;;;;;17.92;15.18;;;;;;;;;;4975989;28;20026;-77
2021/03/17 11:25:27;;;;;;;22.95;18.00;;;;;;;;;;4975562;28;20031;-73
2021/03/17 11:27:56;;;;;;;22.08;14.40;;;;;;;;;;4973191;28;20050;-72
2021/03/17 11:30:22;;;;;;;17.42;14.52;;;;;;;;;;4975705;28;20090;-75
2021/03/17 11:32:48;;;;;;;19.17;14.52;;;;;;;;;;4974436;28;20053;-71
2021/03/17 11:35:14;;;;;;;20.25;15.30;;;;;;;;;;4975487;28;20035;-71
2021/03/17 11:37:41;;;;;;;19.67;15.32;;;;;;;;;;4973275;28;20082;-71
2021/03/17 11:40:08;;;;;;;23.23;18.08;;;;;;;;;;4974263;28;20458;-71
2021/03/17 11:42:34;;;;;;;19.48;16.38;;;;;;;;;;4974181;28;20412;-77
2021/03/17 11:45:00;;;;;;;18.42;15.15;;;;;;;;;;4975673;28;20207;-70
2021/03/17 11:47:26;;;;;;;24.08;14.57;;;;;;;;;;4974863;28;20038;-73
2021/03/17 11:49:52;;;;;;;21.50;16.67;;;;;;;;;;4973557;28;20073;-71
2021/03/17 11:52:18;;;;;;;23.45;16.58;;;;;;;;;;4971788;28;20033;-74
2021/03/17 11:54:44;;;;;;;17.25;14.73;;;;;;;;;;4974948;28;20039;-70
2021/03/17 11:57:10;;;;;;;21.00;15.32;;;;;;;;;;4973994;28;20110;-70
2021/03/17 11:59:36;;;;;;;21.40;17.15;;;;;;;;;;4975406;28;20033;-70
2021/03/17 12:02:02;;;;;;;20.35;16.80;;;;;;;;;;4975538;28;20062;-70
2021/03/17 12:04:29;;;;;;;20.58;16.83;;;;;;;;;;4974544;28;20034;-69
2021/03/17 12:06:55;;;;;;;20.08;16.25;;;;;;;;;;4974683;28;20034;-71
2021/03/17 12:09:23;;;;;;;21.35;16.65;;;;;;;;;;4974773;28;20054;-68
2021/03/17 12:11:52;;;;;;;19.75;16.35;;;;;;;;;;4973725;28;20056;-70
2021/03/17 12:14:18;;;;;;;17.88;15.40;;;;;;;;;;4973745;28;20479;-68
2021/03/17 12:16:44;;;;;;;18.35;13.90;;;;;;;;;;4973709;28;20061;-66
2021/03/17 12:19:10;;;;;;;21.00;15.05;;;;;;;;;;4975033;28;20062;-80
2021/03/17 12:21:39;;;;;;;19.08;15.00;;;;;;;;;;4957267;28;20463;-79
2021/03/17 12:24:09;;;;;;;20.85;16.30;;;;;;;;;;4987272;28;20447;-78
2021/03/17 12:26:37;;;;;;;27.27;17.85;;;;;;;;;;4977449;28;20035;-76
2021/03/17 12:29:03;;;;;;;19.98;15.20;;;;;;;;;;4974095;28;20093;-68
2021/03/17 12:31:32;;;;;;;19.90;15.98;;;;;;;;;;4974845;28;20038;-67
2021/03/17 12:33:58;;;;;;;25.60;17.25;;;;;;;;;;4974726;28;20058;-70
2021/03/17 12:36:25;;;;;;;21.17;16.17;;;;;;;;;;4974906;28;20406;-70
2021/03/17 12:38:51;;;;;;;18.20;15.20;;;;;;;;;;4973575;28;20027;-70